Santa Teresa — D5AH6 — position and weather

sailwx.info

Track history (hours):
 
Tides and Currents Weather Stations Pressure Air Temp Water Temp Dewpoint Dewpoint Depression Visibility Wind Speed Wind Dir Waves Ship Positions

Santa Teresa

Last reported at 2015-Jul-03 18:11 UTC. Time now 2015-Jul-03 23:39 UTC.
Position N 29°46' E 122°01'.

Length 300 m; draft 8.6 m.

Type: Ship (hazmat cat A). MMSI: 636092317.

Date/timePositionNaut miles runAvg speedWind from/ knotsBaromVisibWave heightAir tempDewpointWater temp
2015-Jul-03 18:11N 29°46' E 122°01'0 0.0
2015-Jul-03 17:23N 29°46' E 122°01'0 0.0
2015-Jul-03 16:22N 29°46' E 122°01'1 1.3
2015-Jul-03 15:33N 29°47' E 122°02'1010.1
2015-Jul-03 14:33N 29°51' E 122°12'9 9.5
2015-Jul-03 13:34N 29°45' E 122°21'1313.3
2015-Jul-03 12:33N 29°42' E 122°36'1515.5
2015-Jul-03 11:34N 29°51' E 122°51'1515.4
2015-Jul-03 10:33N 30°02' E 123°03'1814.8
2015-Jul-03 09:22N 30°19' E 122°58'4715.8
2015-Jul-03 06:23N 30°35' E 122°07'4 5.2
2015-Jul-03 05:33N 30°38' E 122°03'0 0.0
2015-Jul-03 03:24N 30°38' E 122°03'0 0.0
2015-Jul-03 02:24N 30°38' E 122°03'0 0.0
2015-Jul-03 01:33N 30°38' E 122°03'0 0.0
2015-Jul-03 00:33N 30°38' E 122°03'0 0.0
2015-Jul-02 23:33N 30°38' E 122°03'0 0.0
2015-Jul-02 22:33N 30°38' E 122°03'0 0.0
2015-Jul-02 21:33N 30°38' E 122°03'0 0.0
2015-Jul-02 20:33N 30°38' E 122°03'0 0.0
2015-Jul-02 19:33N 30°38' E 122°03'6 6.2
2015-Jul-02 18:33N 30°35' E 122°09'1010.5
2015-Jul-02 17:33N 30°33' E 122°21'1413.5
2015-Jul-02 16:34N 30°32' E 122°36'1414.3
2015-Jul-02 15:33N 30°34' E 122°53'1514.8
2015-Jul-02 14:33N 30°38' E 123°09'9 7.9
2015-Jul-02 13:26N 30°39' E 123°20'1 1.3
2015-Jul-02 12:34N 30°39' E 123°21'1 1.2
2015-Jul-02 11:33N 30°39' E 123°22'1 1.0
2015-Jul-02 10:33N 30°39' E 123°23'1 0.9
2015-Jul-02 09:33N 30°40' E 123°24'1 0.6
2015-Jul-02 07:20N 30°41' E 123°23'1 0.7
2015-Jul-02 06:26N 30°41' E 123°22'3311.5
2015-Jul-02 03:33N 30°60' E 123°54'1514.8
2015-Jul-02 02:33N 31°09' E 124°07'1514.7
2015-Jul-02 01:33N 31°19' E 124°20'1514.9
2015-Jul-02 00:34N 31°29' E 124°33'1515.0
2015-Jul-01 23:33N 31°39' E 124°47'1514.9
2015-Jul-01 22:33N 31°48' E 124°60'1615.2
2015-Jul-01 21:29N 31°59' E 125°14'1615.1
2015-Jul-01 20:26N 32°09' E 125°29'1315.2
2015-Jul-01 19:33N 32°18' E 125°41'1815.2
2015-Jul-01 18:21N 32°29' E 125°57'  
2015-Jun-24 00:00N 48°00' W 174°30'   030 / 71018.610.8 0.510.3 5.5 5.1
Track history (hours):
 
Tides and Currents Weather Stations Pressure Air Temp Water Temp Dewpoint Dewpoint Depression Visibility Wind Speed Wind Dir Waves Ship Positions

Santa Teresa

Last reported at 2015-Jul-03 18:11 UTC. Time now 2015-Jul-03 23:39 UTC.
Position N 29°46' E 122°01'.

Length 300 m; draft 8.6 m.

Type: Ship (hazmat cat A). MMSI: 636092317.

Date/timePositionNaut miles runAvg speedWind from/ knotsBaromVisibWave heightAir tempDewpointWater temp
2015-Jul-03 18:11N 29°46' E 122°01'0 0.0
2015-Jul-03 17:23N 29°46' E 122°01'0 0.0
2015-Jul-03 16:22N 29°46' E 122°01'1 1.3
2015-Jul-03 15:33N 29°47' E 122°02'1010.1
2015-Jul-03 14:33N 29°51' E 122°12'9 9.5
2015-Jul-03 13:34N 29°45' E 122°21'1313.3
2015-Jul-03 12:33N 29°42' E 122°36'1515.5
2015-Jul-03 11:34N 29°51' E 122°51'1515.4
2015-Jul-03 10:33N 30°02' E 123°03'1814.8
2015-Jul-03 09:22N 30°19' E 122°58'4715.8
2015-Jul-03 06:23N 30°35' E 122°07'4 5.2
2015-Jul-03 05:33N 30°38' E 122°03'0 0.0
2015-Jul-03 03:24N 30°38' E 122°03'0 0.0
2015-Jul-03 02:24N 30°38' E 122°03'0 0.0
2015-Jul-03 01:33N 30°38' E 122°03'0 0.0
2015-Jul-03 00:33N 30°38' E 122°03'0 0.0
2015-Jul-02 23:33N 30°38' E 122°03'0 0.0
2015-Jul-02 22:33N 30°38' E 122°03'0 0.0
2015-Jul-02 21:33N 30°38' E 122°03'0 0.0
2015-Jul-02 20:33N 30°38' E 122°03'0 0.0
2015-Jul-02 19:33N 30°38' E 122°03'6 6.2
2015-Jul-02 18:33N 30°35' E 122°09'1010.5
2015-Jul-02 17:33N 30°33' E 122°21'1413.5
2015-Jul-02 16:34N 30°32' E 122°36'1414.3
2015-Jul-02 15:33N 30°34' E 122°53'1514.8
2015-Jul-02 14:33N 30°38' E 123°09'9 7.9
2015-Jul-02 13:26N 30°39' E 123°20'1 1.3
2015-Jul-02 12:34N 30°39' E 123°21'1 1.2
2015-Jul-02 11:33N 30°39' E 123°22'1 1.0
2015-Jul-02 10:33N 30°39' E 123°23'1 0.9
2015-Jul-02 09:33N 30°40' E 123°24'1 0.6
2015-Jul-02 07:20N 30°41' E 123°23'1 0.7
2015-Jul-02 06:26N 30°41' E 123°22'3311.5
2015-Jul-02 03:33N 30°60' E 123°54'1514.8
2015-Jul-02 02:33N 31°09' E 124°07'1514.7
2015-Jul-02 01:33N 31°19' E 124°20'1514.9
2015-Jul-02 00:34N 31°29' E 124°33'1515.0
2015-Jul-01 23:33N 31°39' E 124°47'1514.9
2015-Jul-01 22:33N 31°48' E 124°60'1615.2
2015-Jul-01 21:29N 31°59' E 125°14'1615.1
2015-Jul-01 20:26N 32°09' E 125°29'1315.2
2015-Jul-01 19:33N 32°18' E 125°41'1815.2
2015-Jul-01 18:21N 32°29' E 125°57'  
2015-Jun-24 00:00N 48°00' W 174°30'   030 / 71018.610.8 0.510.3 5.5 5.1

Dump ship's entire track history